Terminal Aerodrome Forecast
Issued by NWS

Home | Current Version | Previous Version | Text Only | Print | Product List | Glossary On
Versions: 1 2 3 4 5 6 7 8 9 10 11 12 13 14 15 16 17 18 19 20 21 22 23 24 25 26 27 28 29 30 31 32
000
FTUS41 KBUF 290500
TAFJHW
TAF
KJHW 290533Z 2906/3006 33008KT P6SM SCT040 BKN050
     FM290700 30006KT P6SM BKN025
     FM290900 29006KT 4SM BR BKN015
     FM291300 30005KT P6SM BKN030
     FM291900 28010KT P6SM VCSH BKN040
     FM300200 23007KT P6SM BKN090
     FM300500 20009KT P6SM BKN070
      AMD LTD TO CLD VIS AND WIND=

USA.gov is the U.S. government's official web portal to all federal, state and local government web resources and services.